sensor_id;sensor_type;location;lat;lon;timestamp;temperature;humidity
37232;DHT22;23125;48.156;15.954;2024-02-23T00:00:42;12.40;62.70
37232;DHT22;23125;48.156;15.954;2024-02-23T00:03:08;12.30;62.60
37232;DHT22;23125;48.156;15.954;2024-02-23T00:05:36;12.30;62.60
37232;DHT22;23125;48.156;15.954;2024-02-23T00:08:02;12.30;62.40
37232;DHT22;23125;48.156;15.954;2024-02-23T00:10:28;12.20;62.30
37232;DHT22;23125;48.156;15.954;2024-02-23T00:12:54;12.20;62.60
37232;DHT22;23125;48.156;15.954;2024-02-23T00:15:20;12.20;62.80
37232;DHT22;23125;48.156;15.954;2024-02-23T00:17:45;12.20;62.90
37232;DHT22;23125;48.156;15.954;2024-02-23T00:20:12;12.20;63.10
37232;DHT22;23125;48.156;15.954;2024-02-23T00:22:38;12.20;63.20
37232;DHT22;23125;48.156;15.954;2024-02-23T00:25:04;12.20;63.30
37232;DHT22;23125;48.156;15.954;2024-02-23T00:27:31;12.20;63.30
37232;DHT22;23125;48.156;15.954;2024-02-23T00:29:57;12.20;63.20
37232;DHT22;23125;48.156;15.954;2024-02-23T00:32:22;12.30;63.30
37232;DHT22;23125;48.156;15.954;2024-02-23T00:34:48;12.30;63.20
37232;DHT22;23125;48.156;15.954;2024-02-23T00:37:14;12.30;63.30
37232;DHT22;23125;48.156;15.954;2024-02-23T00:39:41;12.30;63.20
37232;DHT22;23125;48.156;15.954;2024-02-23T00:42:07;12.30;63.20
37232;DHT22;23125;48.156;15.954;2024-02-23T00:44:33;12.30;63.30
37232;DHT22;23125;48.156;15.954;2024-02-23T00:46:59;12.30;63.30
37232;DHT22;23125;48.156;15.954;2024-02-23T00:49:27;12.30;63.20
37232;DHT22;23125;48.156;15.954;2024-02-23T00:51:55;12.30;63.20
37232;DHT22;23125;48.156;15.954;2024-02-23T00:54:21;12.30;63.20
37232;DHT22;23125;48.156;15.954;2024-02-23T00:56:47;12.40;63.20
37232;DHT22;23125;48.156;15.954;2024-02-23T00:59:13;12.40;63.30
37232;DHT22;23125;48.156;15.954;2024-02-23T01:01:39;12.30;63.20
37232;DHT22;23125;48.156;15.954;2024-02-23T01:04:05;12.30;63.20
37232;DHT22;23125;48.156;15.954;2024-02-23T01:06:30;12.30;63.10
37232;DHT22;23125;48.156;15.954;2024-02-23T01:08:56;12.30;63.20
37232;DHT22;23125;48.156;15.954;2024-02-23T01:11:22;12.30;63.20
37232;DHT22;23125;48.156;15.954;2024-02-23T01:13:48;12.30;63.30
37232;DHT22;23125;48.156;15.954;2024-02-23T01:16:14;12.30;63.10
37232;DHT22;23125;48.156;15.954;2024-02-23T01:18:40;12.30;63.10
37232;DHT22;23125;48.156;15.954;2024-02-23T01:21:06;12.30;63.20
37232;DHT22;23125;48.156;15.954;2024-02-23T01:23:32;12.30;63.30
37232;DHT22;23125;48.156;15.954;2024-02-23T01:25:58;12.20;63.30
37232;DHT22;23125;48.156;15.954;2024-02-23T01:28:25;12.30;63.30
37232;DHT22;23125;48.156;15.954;2024-02-23T01:30:51;12.30;63.40
37232;DHT22;23125;48.156;15.954;2024-02-23T01:33:17;12.30;63.30
37232;DHT22;23125;48.156;15.954;2024-02-23T01:35:43;12.30;63.10
37232;DHT22;23125;48.156;15.954;2024-02-23T01:38:08;12.20;62.90
37232;DHT22;23125;48.156;15.954;2024-02-23T01:40:34;12.20;63.10
37232;DHT22;23125;48.156;15.954;2024-02-23T01:43:04;12.20;63.30
37232;DHT22;23125;48.156;15.954;2024-02-23T01:45:31;12.20;63.20
37232;DHT22;23125;48.156;15.954;2024-02-23T01:47:58;12.20;63.30
37232;DHT22;23125;48.156;15.954;2024-02-23T01:50:26;12.20;63.40
37232;DHT22;23125;48.156;15.954;2024-02-23T01:52:53;12.20;63.40
37232;DHT22;23125;48.156;15.954;2024-02-23T01:55:22;12.20;63.30
37232;DHT22;23125;48.156;15.954;2024-02-23T01:57:48;12.20;63.30
37232;DHT22;23125;48.156;15.954;2024-02-23T02:00:17;12.20;63.20
37232;DHT22;23125;48.156;15.954;2024-02-23T02:02:44;12.10;63.20
37232;DHT22;23125;48.156;15.954;2024-02-23T02:05:11;12.10;63.40
37232;DHT22;23125;48.156;15.954;2024-02-23T02:07:37;12.10;63.50
37232;DHT22;23125;48.156;15.954;2024-02-23T02:10:08;12.10;63.50
37232;DHT22;23125;48.156;15.954;2024-02-23T02:12:34;12.10;63.60
37232;DHT22;23125;48.156;15.954;2024-02-23T02:15:00;12.10;63.60
37232;DHT22;23125;48.156;15.954;2024-02-23T02:17:30;12.10;63.40
37232;DHT22;23125;48.156;15.954;2024-02-23T02:19:58;12.10;63.30
37232;DHT22;23125;48.156;15.954;2024-02-23T02:22:24;12.10;63.40
37232;DHT22;23125;48.156;15.954;2024-02-23T02:24:50;12.10;63.40
37232;DHT22;23125;48.156;15.954;2024-02-23T02:27:16;12.10;63.50
37232;DHT22;23125;48.156;15.954;2024-02-23T02:29:42;12.10;63.60
37232;DHT22;23125;48.156;15.954;2024-02-23T02:32:08;12.10;64.30
37232;DHT22;23125;48.156;15.954;2024-02-23T02:34:34;12.10;63.70
37232;DHT22;23125;48.156;15.954;2024-02-23T02:37:00;12.10;63.70
37232;DHT22;23125;48.156;15.954;2024-02-23T02:39:27;12.20;63.80
37232;DHT22;23125;48.156;15.954;2024-02-23T02:41:53;12.10;63.60
37232;DHT22;23125;48.156;15.954;2024-02-23T02:44:19;12.10;63.50
37232;DHT22;23125;48.156;15.954;2024-02-23T02:46:45;12.10;63.50
37232;DHT22;23125;48.156;15.954;2024-02-23T02:49:11;12.00;63.30
37232;DHT22;23125;48.156;15.954;2024-02-23T02:51:37;12.00;63.50
37232;DHT22;23125;48.156;15.954;2024-02-23T02:54:03;12.00;63.70
37232;DHT22;23125;48.156;15.954;2024-02-23T02:56:29;12.10;63.90
37232;DHT22;23125;48.156;15.954;2024-02-23T02:58:55;12.10;63.90
37232;DHT22;23125;48.156;15.954;2024-02-23T03:01:21;12.10;63.70
37232;DHT22;23125;48.156;15.954;2024-02-23T03:03:47;12.10;63.80
37232;DHT22;23125;48.156;15.954;2024-02-23T03:06:13;12.10;63.80
37232;DHT22;23125;48.156;15.954;2024-02-23T03:08:42;12.10;63.90
37232;DHT22;23125;48.156;15.954;2024-02-23T03:11:08;12.10;63.90
37232;DHT22;23125;48.156;15.954;2024-02-23T03:13:34;12.10;64.00
37232;DHT22;23125;48.156;15.954;2024-02-23T03:16:00;12.10;64.00
37232;DHT22;23125;48.156;15.954;2024-02-23T03:18:25;12.10;64.00
37232;DHT22;23125;48.156;15.954;2024-02-23T03:20:53;12.10;63.90
37232;DHT22;23125;48.156;15.954;2024-02-23T03:23:20;12.10;63.80
37232;DHT22;23125;48.156;15.954;2024-02-23T03:25:46;12.10;63.80
37232;DHT22;23125;48.156;15.954;2024-02-23T03:28:12;12.10;63.80
37232;DHT22;23125;48.156;15.954;2024-02-23T03:30:38;12.10;64.00
37232;DHT22;23125;48.156;15.954;2024-02-23T03:33:04;12.10;64.00
37232;DHT22;23125;48.156;15.954;2024-02-23T03:35:30;12.10;64.10
37232;DHT22;23125;48.156;15.954;2024-02-23T03:37:55;12.10;64.20
37232;DHT22;23125;48.156;15.954;2024-02-23T03:40:21;12.10;64.10
37232;DHT22;23125;48.156;15.954;2024-02-23T03:42:47;12.10;63.80
37232;DHT22;23125;48.156;15.954;2024-02-23T03:45:13;12.10;63.90
37232;DHT22;23125;48.156;15.954;2024-02-23T03:47:39;12.00;64.00
37232;DHT22;23125;48.156;15.954;2024-02-23T03:50:06;12.00;64.10
37232;DHT22;23125;48.156;15.954;2024-02-23T03:52:33;12.00;64.20
37232;DHT22;23125;48.156;15.954;2024-02-23T03:54:59;12.00;64.30
37232;DHT22;23125;48.156;15.954;2024-02-23T03:57:25;11.90;64.30
37232;DHT22;23125;48.156;15.954;2024-02-23T03:59:55;12.00;64.60
37232;DHT22;23125;48.156;15.954;2024-02-23T04:02:22;12.00;64.60
37232;DHT22;23125;48.156;15.954;2024-02-23T04:04:48;11.90;64.70
37232;DHT22;23125;48.156;15.954;2024-02-23T04:07:14;12.00;64.90
37232;DHT22;23125;48.156;15.954;2024-02-23T04:09:41;11.90;65.00
37232;DHT22;23125;48.156;15.954;2024-02-23T04:12:07;11.90;65.00
37232;DHT22;23125;48.156;15.954;2024-02-23T04:14:33;12.00;65.20
37232;DHT22;23125;48.156;15.954;2024-02-23T04:17:05;12.00;65.30
37232;DHT22;23125;48.156;15.954;2024-02-23T04:19:30;12.00;65.20
37232;DHT22;23125;48.156;15.954;2024-02-23T04:21:56;12.00;65.20
37232;DHT22;23125;48.156;15.954;2024-02-23T04:24:22;12.00;65.20
37232;DHT22;23125;48.156;15.954;2024-02-23T04:26:48;12.00;65.20
37232;DHT22;23125;48.156;15.954;2024-02-23T04:29:14;12.00;65.30
37232;DHT22;23125;48.156;15.954;2024-02-23T04:31:40;12.00;65.30
37232;DHT22;23125;48.156;15.954;2024-02-23T04:34:06;12.00;65.30
37232;DHT22;23125;48.156;15.954;2024-02-23T04:36:31;12.00;65.30
37232;DHT22;23125;48.156;15.954;2024-02-23T04:38:57;12.00;65.40
37232;DHT22;23125;48.156;15.954;2024-02-23T04:41:23;12.00;65.40
37232;DHT22;23125;48.156;15.954;2024-02-23T04:43:50;12.00;65.40
37232;DHT22;23125;48.156;15.954;2024-02-23T04:46:16;12.00;65.30
37232;DHT22;23125;48.156;15.954;2024-02-23T04:48:42;12.00;65.30
37232;DHT22;23125;48.156;15.954;2024-02-23T04:51:08;12.00;65.30
37232;DHT22;23125;48.156;15.954;2024-02-23T04:53:37;12.00;65.30
37232;DHT22;23125;48.156;15.954;2024-02-23T04:56:05;11.90;65.20
37232;DHT22;23125;48.156;15.954;2024-02-23T04:58:31;12.00;65.30
37232;DHT22;23125;48.156;15.954;2024-02-23T05:00:57;12.00;65.50
37232;DHT22;23125;48.156;15.954;2024-02-23T05:03:23;12.00;65.50
37232;DHT22;23125;48.156;15.954;2024-02-23T05:05:49;12.00;65.50
37232;DHT22;23125;48.156;15.954;2024-02-23T05:08:20;12.00;65.50
37232;DHT22;23125;48.156;15.954;2024-02-23T05:10:47;12.00;65.50
37232;DHT22;23125;48.156;15.954;2024-02-23T05:13:13;12.00;65.50
37232;DHT22;23125;48.156;15.954;2024-02-23T05:15:39;12.00;65.50
37232;DHT22;23125;48.156;15.954;2024-02-23T05:18:06;12.00;65.50
37232;DHT22;23125;48.156;15.954;2024-02-23T05:20:31;12.00;65.50
37232;DHT22;23125;48.156;15.954;2024-02-23T05:22:57;12.00;65.50
37232;DHT22;23125;48.156;15.954;2024-02-23T05:25:23;12.00;65.30
37232;DHT22;23125;48.156;15.954;2024-02-23T05:27:51;12.00;65.30
37232;DHT22;23125;48.156;15.954;2024-02-23T05:30:18;12.00;65.20
37232;DHT22;23125;48.156;15.954;2024-02-23T05:32:43;12.00;65.10
37232;DHT22;23125;48.156;15.954;2024-02-23T05:35:09;12.00;65.20
37232;DHT22;23125;48.156;15.954;2024-02-23T05:37:36;12.00;65.20
37232;DHT22;23125;48.156;15.954;2024-02-23T05:40:03;12.00;65.30
37232;DHT22;23125;48.156;15.954;2024-02-23T05:42:32;12.00;65.20
37232;DHT22;23125;48.156;15.954;2024-02-23T05:44:58;12.00;65.20
37232;DHT22;23125;48.156;15.954;2024-02-23T05:47:24;12.00;65.20
37232;DHT22;23125;48.156;15.954;2024-02-23T05:49:50;12.00;65.30
37232;DHT22;23125;48.156;15.954;2024-02-23T05:52:16;11.90;65.20
37232;DHT22;23125;48.156;15.954;2024-02-23T05:54:42;12.00;65.20
37232;DHT22;23125;48.156;15.954;2024-02-23T05:57:08;12.00;65.00
37232;DHT22;23125;48.156;15.954;2024-02-23T05:59:34;12.00;65.10
37232;DHT22;23125;48.156;15.954;2024-02-23T06:02:00;12.00;65.10
37232;DHT22;23125;48.156;15.954;2024-02-23T06:04:26;12.00;65.00
37232;DHT22;23125;48.156;15.954;2024-02-23T06:06:53;12.00;65.10
37232;DHT22;23125;48.156;15.954;2024-02-23T06:09:19;11.90;65.00
37232;DHT22;23125;48.156;15.954;2024-02-23T06:11:45;11.90;65.00
37232;DHT22;23125;48.156;15.954;2024-02-23T06:14:11;11.90;65.10
37232;DHT22;23125;48.156;15.954;2024-02-23T06:16:37;11.90;65.00
37232;DHT22;23125;48.156;15.954;2024-02-23T06:19:03;12.00;65.10
37232;DHT22;23125;48.156;15.954;2024-02-23T06:21:29;12.00;64.90
37232;DHT22;23125;48.156;15.954;2024-02-23T06:23:55;11.90;64.90
37232;DHT22;23125;48.156;15.954;2024-02-23T06:26:21;12.00;65.00
37232;DHT22;23125;48.156;15.954;2024-02-23T06:28:47;12.00;65.00
37232;DHT22;23125;48.156;15.954;2024-02-23T06:31:14;12.00;64.90
37232;DHT22;23125;48.156;15.954;2024-02-23T06:33:40;12.00;64.90
37232;DHT22;23125;48.156;15.954;2024-02-23T06:36:09;12.00;64.70
37232;DHT22;23125;48.156;15.954;2024-02-23T06:38:35;12.00;64.80
37232;DHT22;23125;48.156;15.954;2024-02-23T06:41:01;12.00;64.90
37232;DHT22;23125;48.156;15.954;2024-02-23T06:43:27;12.10;64.90
37232;DHT22;23125;48.156;15.954;2024-02-23T06:45:53;12.10;64.90
37232;DHT22;23125;48.156;15.954;2024-02-23T06:48:19;12.10;64.90
37232;DHT22;23125;48.156;15.954;2024-02-23T06:50:45;12.10;64.80
37232;DHT22;23125;48.156;15.954;2024-02-23T06:53:11;12.10;64.80
37232;DHT22;23125;48.156;15.954;2024-02-23T06:55:37;12.10;64.60
37232;DHT22;23125;48.156;15.954;2024-02-23T06:58:03;12.10;64.60
37232;DHT22;23125;48.156;15.954;2024-02-23T07:00:32;12.10;64.50
37232;DHT22;23125;48.156;15.954;2024-02-23T07:02:58;12.20;64.70
37232;DHT22;23125;48.156;15.954;2024-02-23T07:05:25;12.20;64.60
37232;DHT22;23125;48.156;15.954;2024-02-23T07:07:51;12.10;64.60
37232;DHT22;23125;48.156;15.954;2024-02-23T07:10:17;12.20;64.70
37232;DHT22;23125;48.156;15.954;2024-02-23T07:12:44;12.20;64.50
37232;DHT22;23125;48.156;15.954;2024-02-23T07:15:10;12.20;64.50
37232;DHT22;23125;48.156;15.954;2024-02-23T07:17:36;12.20;64.50
37232;DHT22;23125;48.156;15.954;2024-02-23T07:20:02;12.20;64.40
37232;DHT22;23125;48.156;15.954;2024-02-23T07:22:34;12.20;64.40
37232;DHT22;23125;48.156;15.954;2024-02-23T07:25:00;12.20;64.30
37232;DHT22;23125;48.156;15.954;2024-02-23T07:27:29;12.30;64.40
37232;DHT22;23125;48.156;15.954;2024-02-23T07:29:56;12.30;64.10
37232;DHT22;23125;48.156;15.954;2024-02-23T07:32:22;12.30;64.10
37232;DHT22;23125;48.156;15.954;2024-02-23T07:34:48;12.30;64.10
37232;DHT22;23125;48.156;15.954;2024-02-23T07:37:15;12.30;64.10
37232;DHT22;23125;48.156;15.954;2024-02-23T07:39:41;12.30;64.00
37232;DHT22;23125;48.156;15.954;2024-02-23T07:42:07;12.30;63.90
37232;DHT22;23125;48.156;15.954;2024-02-23T07:44:35;12.30;63.90
37232;DHT22;23125;48.156;15.954;2024-02-23T07:47:01;12.30;63.90
37232;DHT22;23125;48.156;15.954;2024-02-23T07:49:26;12.40;64.00
37232;DHT22;23125;48.156;15.954;2024-02-23T07:51:54;12.40;64.00
37232;DHT22;23125;48.156;15.954;2024-02-23T07:54:20;12.40;63.90
37232;DHT22;23125;48.156;15.954;2024-02-23T07:56:46;12.40;64.00
37232;DHT22;23125;48.156;15.954;2024-02-23T07:59:12;12.40;64.00
37232;DHT22;23125;48.156;15.954;2024-02-23T08:01:38;12.40;63.90
37232;DHT22;23125;48.156;15.954;2024-02-23T08:04:05;12.40;63.90
37232;DHT22;23125;48.156;15.954;2024-02-23T08:06:31;12.50;64.00
37232;DHT22;23125;48.156;15.954;2024-02-23T08:08:58;12.50;64.10
37232;DHT22;23125;48.156;15.954;2024-02-23T08:11:24;12.50;64.10
37232;DHT22;23125;48.156;15.954;2024-02-23T08:13:51;12.60;64.30
37232;DHT22;23125;48.156;15.954;2024-02-23T08:16:17;12.60;64.20
37232;DHT22;23125;48.156;15.954;2024-02-23T08:18:43;12.60;64.00
37232;DHT22;23125;48.156;15.954;2024-02-23T08:21:10;12.70;64.10
37232;DHT22;23125;48.156;15.954;2024-02-23T08:23:37;12.70;63.70
37232;DHT22;23125;48.156;15.954;2024-02-23T08:26:03;12.70;63.70
37232;DHT22;23125;48.156;15.954;2024-02-23T08:28:29;12.70;63.80
37232;DHT22;23125;48.156;15.954;2024-02-23T08:30:54;12.70;63.90
37232;DHT22;23125;48.156;15.954;2024-02-23T08:33:20;12.70;63.80
37232;DHT22;23125;48.156;15.954;2024-02-23T08:35:46;12.80;64.00
37232;DHT22;23125;48.156;15.954;2024-02-23T08:38:14;12.80;64.00
37232;DHT22;23125;48.156;15.954;2024-02-23T08:40:40;12.80;64.00
37232;DHT22;23125;48.156;15.954;2024-02-23T08:43:07;12.90;64.00
37232;DHT22;23125;48.156;15.954;2024-02-23T08:45:33;12.90;64.00
37232;DHT22;23125;48.156;15.954;2024-02-23T08:47:59;12.90;63.90
37232;DHT22;23125;48.156;15.954;2024-02-23T08:50:25;12.90;63.80
37232;DHT22;23125;48.156;15.954;2024-02-23T08:52:51;13.00;63.80
37232;DHT22;23125;48.156;15.954;2024-02-23T08:55:17;13.00;64.00
37232;DHT22;23125;48.156;15.954;2024-02-23T08:57:43;13.00;64.00
37232;DHT22;23125;48.156;15.954;2024-02-23T09:00:10;13.10;63.90
37232;DHT22;23125;48.156;15.954;2024-02-23T09:02:36;13.10;63.90
37232;DHT22;23125;48.156;15.954;2024-02-23T09:05:04;13.10;63.80
37232;DHT22;23125;48.156;15.954;2024-02-23T09:07:31;13.10;63.80
37232;DHT22;23125;48.156;15.954;2024-02-23T09:09:57;13.20;63.60
37232;DHT22;23125;48.156;15.954;2024-02-23T09:12:23;13.20;63.60
37232;DHT22;23125;48.156;15.954;2024-02-23T09:14:49;13.20;63.80
37232;DHT22;23125;48.156;15.954;2024-02-23T09:17:15;13.20;63.70
37232;DHT22;23125;48.156;15.954;2024-02-23T09:19:41;13.20;63.80
37232;DHT22;23125;48.156;15.954;2024-02-23T09:22:07;13.30;64.10
37232;DHT22;23125;48.156;15.954;2024-02-23T09:24:33;13.30;64.00
37232;DHT22;23125;48.156;15.954;2024-02-23T09:26:59;13.40;64.20
37232;DHT22;23125;48.156;15.954;2024-02-23T09:29:25;13.40;64.10
37232;DHT22;23125;48.156;15.954;2024-02-23T09:31:51;13.40;64.00
37232;DHT22;23125;48.156;15.954;2024-02-23T09:34:18;13.50;63.90
37232;DHT22;23125;48.156;15.954;2024-02-23T09:36:44;13.50;63.90
37232;DHT22;23125;48.156;15.954;2024-02-23T09:39:10;13.50;63.90
37232;DHT22;23125;48.156;15.954;2024-02-23T09:41:37;13.50;63.80
37232;DHT22;23125;48.156;15.954;2024-02-23T09:44:05;13.60;63.70
37232;DHT22;23125;48.156;15.954;2024-02-23T09:46:33;13.60;63.50
37232;DHT22;23125;48.156;15.954;2024-02-23T09:49:02;13.60;63.50
37232;DHT22;23125;48.156;15.954;2024-02-23T09:51:29;13.60;63.50
37232;DHT22;23125;48.156;15.954;2024-02-23T09:53:57;13.60;63.40
37232;DHT22;23125;48.156;15.954;2024-02-23T09:56:27;13.60;63.50
37232;DHT22;23125;48.156;15.954;2024-02-23T09:58:59;13.60;63.40
37232;DHT22;23125;48.156;15.954;2024-02-23T10:01:30;13.60;63.40
37232;DHT22;23125;48.156;15.954;2024-02-23T10:04:00;13.60;63.40
37232;DHT22;23125;48.156;15.954;2024-02-23T10:06:28;13.60;63.40
37232;DHT22;23125;48.156;15.954;2024-02-23T10:08:54;13.60;63.40
37232;DHT22;23125;48.156;15.954;2024-02-23T10:11:24;13.60;63.60
37232;DHT22;23125;48.156;15.954;2024-02-23T10:13:50;13.60;63.80
37232;DHT22;23125;48.156;15.954;2024-02-23T10:16:18;13.70;64.10
37232;DHT22;23125;48.156;15.954;2024-02-23T10:18:48;13.70;64.00
37232;DHT22;23125;48.156;15.954;2024-02-23T10:21:17;13.70;63.80
37232;DHT22;23125;48.156;15.954;2024-02-23T10:23:47;13.70;63.60
37232;DHT22;23125;48.156;15.954;2024-02-23T10:26:14;13.80;63.90
37232;DHT22;23125;48.156;15.954;2024-02-23T10:28:46;13.80;64.10
37232;DHT22;23125;48.156;15.954;2024-02-23T10:31:17;13.80;64.30
37232;DHT22;23125;48.156;15.954;2024-02-23T10:33:45;13.90;64.50
37232;DHT22;23125;48.156;15.954;2024-02-23T10:36:15;13.90;64.10
37232;DHT22;23125;48.156;15.954;2024-02-23T10:38:45;14.00;63.80
37232;DHT22;23125;48.156;15.954;2024-02-23T10:41:17;14.00;63.80
37232;DHT22;23125;48.156;15.954;2024-02-23T10:43:48;14.00;63.70
37232;DHT22;23125;48.156;15.954;2024-02-23T10:46:15;14.10;64.10
37232;DHT22;23125;48.156;15.954;2024-02-23T10:48:43;14.20;64.40
37232;DHT22;23125;48.156;15.954;2024-02-23T10:51:11;14.30;64.20
37232;DHT22;23125;48.156;15.954;2024-02-23T10:53:39;14.30;63.70
37232;DHT22;23125;48.156;15.954;2024-02-23T10:56:07;14.30;63.60
37232;DHT22;23125;48.156;15.954;2024-02-23T10:58:33;14.30;63.20
37232;DHT22;23125;48.156;15.954;2024-02-23T11:01:01;14.30;63.10
37232;DHT22;23125;48.156;15.954;2024-02-23T11:03:32;14.30;62.90
37232;DHT22;23125;48.156;15.954;2024-02-23T11:06:02;14.40;63.00
37232;DHT22;23125;48.156;15.954;2024-02-23T11:08:33;14.40;63.10
37232;DHT22;23125;48.156;15.954;2024-02-23T11:11:08;14.50;63.50
37232;DHT22;23125;48.156;15.954;2024-02-23T11:13:38;14.50;63.60
37232;DHT22;23125;48.156;15.954;2024-02-23T11:16:05;14.60;63.30
37232;DHT22;23125;48.156;15.954;2024-02-23T11:18:33;14.60;62.50
37232;DHT22;23125;48.156;15.954;2024-02-23T11:21:02;14.60;62.30
37232;DHT22;23125;48.156;15.954;2024-02-23T11:23:49;14.60;62.30
37232;DHT22;23125;48.156;15.954;2024-02-23T11:26:18;14.60;62.20
37232;DHT22;23125;48.156;15.954;2024-02-23T11:31:18;14.50;61.90
37232;DHT22;23125;48.156;15.954;2024-02-23T11:33:48;14.50;62.00
37232;DHT22;23125;48.156;15.954;2024-02-23T11:36:34;14.40;61.70
37232;DHT22;23125;48.156;15.954;2024-02-23T11:39:01;14.40;61.80
37232;DHT22;23125;48.156;15.954;2024-02-23T11:41:28;14.30;61.70
37232;DHT22;23125;48.156;15.954;2024-02-23T11:43:55;14.30;62.00
37232;DHT22;23125;48.156;15.954;2024-02-23T11:46:22;14.30;62.00
37232;DHT22;23125;48.156;15.954;2024-02-23T11:48:49;14.30;61.70
37232;DHT22;23125;48.156;15.954;2024-02-23T11:51:26;14.30;61.70
37232;DHT22;23125;48.156;15.954;2024-02-23T11:53:55;14.20;61.20
37232;DHT22;23125;48.156;15.954;2024-02-23T11:56:26;14.10;61.10
37232;DHT22;23125;48.156;15.954;2024-02-23T11:58:54;14.10;61.30
37232;DHT22;23125;48.156;15.954;2024-02-23T12:01:21;14.00;61.40
37232;DHT22;23125;48.156;15.954;2024-02-23T12:03:47;14.00;61.60
37232;DHT22;23125;48.156;15.954;2024-02-23T12:06:15;14.00;61.20
37232;DHT22;23125;48.156;15.954;2024-02-23T12:08:44;13.90;61.10
37232;DHT22;23125;48.156;15.954;2024-02-23T12:11:11;13.90;61.50
37232;DHT22;23125;48.156;15.954;2024-02-23T12:13:40;13.90;61.70
37232;DHT22;23125;48.156;15.954;2024-02-23T12:16:07;13.90;61.80
37232;DHT22;23125;48.156;15.954;2024-02-23T12:18:35;13.90;61.80
37232;DHT22;23125;48.156;15.954;2024-02-23T12:21:06;13.90;61.90
37232;DHT22;23125;48.156;15.954;2024-02-23T12:23:42;14.00;62.00
37232;DHT22;23125;48.156;15.954;2024-02-23T12:26:10;14.00;62.30
37232;DHT22;23125;48.156;15.954;2024-02-23T12:28:36;14.00;62.30
37232;DHT22;23125;48.156;15.954;2024-02-23T12:31:03;14.10;62.30
37232;DHT22;23125;48.156;15.954;2024-02-23T12:33:34;14.10;62.00
37232;DHT22;23125;48.156;15.954;2024-02-23T12:36:02;14.10;61.40
37232;DHT22;23125;48.156;15.954;2024-02-23T12:38:28;14.00;61.20
37232;DHT22;23125;48.156;15.954;2024-02-23T12:40:55;14.00;61.50
37232;DHT22;23125;48.156;15.954;2024-02-23T12:43:21;14.00;61.70
37232;DHT22;23125;48.156;15.954;2024-02-23T12:45:50;14.00;61.60
37232;DHT22;23125;48.156;15.954;2024-02-23T12:48:17;13.90;61.20
37232;DHT22;23125;48.156;15.954;2024-02-23T12:50:44;13.90;60.90
37232;DHT22;23125;48.156;15.954;2024-02-23T12:53:33;13.80;60.70
37232;DHT22;23125;48.156;15.954;2024-02-23T12:56:10;13.80;61.10
37232;DHT22;23125;48.156;15.954;2024-02-23T12:58:44;13.70;60.90
37232;DHT22;23125;48.156;15.954;2024-02-23T13:01:10;13.70;61.20
37232;DHT22;23125;48.156;15.954;2024-02-23T13:03:37;13.60;60.90
37232;DHT22;23125;48.156;15.954;2024-02-23T13:06:04;13.60;61.10
37232;DHT22;23125;48.156;15.954;2024-02-23T13:08:31;13.60;61.20
37232;DHT22;23125;48.156;15.954;2024-02-23T13:10:57;13.50;61.10
37232;DHT22;23125;48.156;15.954;2024-02-23T13:13:24;13.50;61.10
37232;DHT22;23125;48.156;15.954;2024-02-23T13:15:51;13.50;61.00
37232;DHT22;23125;48.156;15.954;2024-02-23T13:18:18;13.50;61.00
37232;DHT22;23125;48.156;15.954;2024-02-23T13:20:45;13.50;61.30
37232;DHT22;23125;48.156;15.954;2024-02-23T13:23:12;13.50;61.40
37232;DHT22;23125;48.156;15.954;2024-02-23T13:25:41;13.50;61.40
37232;DHT22;23125;48.156;15.954;2024-02-23T13:28:08;13.50;61.60
37232;DHT22;23125;48.156;15.954;2024-02-23T13:30:35;13.50;61.30
37232;DHT22;23125;48.156;15.954;2024-02-23T13:33:03;13.50;60.90
37232;DHT22;23125;48.156;15.954;2024-02-23T13:35:29;13.40;61.10
37232;DHT22;23125;48.156;15.954;2024-02-23T13:37:55;13.40;61.20
37232;DHT22;23125;48.156;15.954;2024-02-23T13:40:23;13.40;61.20
37232;DHT22;23125;48.156;15.954;2024-02-23T13:42:49;13.40;60.90
37232;DHT22;23125;48.156;15.954;2024-02-23T13:45:16;13.40;60.90
37232;DHT22;23125;48.156;15.954;2024-02-23T13:47:55;13.30;61.00
37232;DHT22;23125;48.156;15.954;2024-02-23T13:50:21;13.30;61.20
37232;DHT22;23125;48.156;15.954;2024-02-23T13:52:48;13.30;61.50
37232;DHT22;23125;48.156;15.954;2024-02-23T13:55:14;13.30;61.40
37232;DHT22;23125;48.156;15.954;2024-02-23T13:57:40;13.30;61.40
37232;DHT22;23125;48.156;15.954;2024-02-23T14:00:06;13.30;61.60
37232;DHT22;23125;48.156;15.954;2024-02-23T14:02:38;13.30;61.50
37232;DHT22;23125;48.156;15.954;2024-02-23T14:05:06;13.30;61.30
37232;DHT22;23125;48.156;15.954;2024-02-23T14:07:33;13.30;61.40
37232;DHT22;23125;48.156;15.954;2024-02-23T14:10:00;13.30;61.70
37232;DHT22;23125;48.156;15.954;2024-02-23T14:12:28;13.40;61.90
37232;DHT22;23125;48.156;15.954;2024-02-23T14:14:54;13.40;61.70
37232;DHT22;23125;48.156;15.954;2024-02-23T14:17:20;13.40;61.70
37232;DHT22;23125;48.156;15.954;2024-02-23T14:19:46;13.30;61.70
37232;DHT22;23125;48.156;15.954;2024-02-23T14:22:13;13.40;61.70
37232;DHT22;23125;48.156;15.954;2024-02-23T14:24:38;13.40;62.00
37232;DHT22;23125;48.156;15.954;2024-02-23T14:27:06;13.40;62.20
37232;DHT22;23125;48.156;15.954;2024-02-23T14:29:32;13.50;62.30
37232;DHT22;23125;48.156;15.954;2024-02-23T14:31:59;13.50;62.40
37232;DHT22;23125;48.156;15.954;2024-02-23T14:34:25;13.60;62.50
37232;DHT22;23125;48.156;15.954;2024-02-23T14:36:51;13.60;62.40
37232;DHT22;23125;48.156;15.954;2024-02-23T14:39:17;13.60;62.20
37232;DHT22;23125;48.156;15.954;2024-02-23T14:41:43;13.60;62.10
37232;DHT22;23125;48.156;15.954;2024-02-23T14:44:09;13.60;61.90
37232;DHT22;23125;48.156;15.954;2024-02-23T14:46:35;13.70;62.00
37232;DHT22;23125;48.156;15.954;2024-02-23T14:49:01;13.60;62.60
37232;DHT22;23125;48.156;15.954;2024-02-23T14:51:27;13.60;61.70
37232;DHT22;23125;48.156;15.954;2024-02-23T14:53:53;13.60;61.80
37232;DHT22;23125;48.156;15.954;2024-02-23T14:56:19;13.60;62.00
37232;DHT22;23125;48.156;15.954;2024-02-23T14:58:45;13.60;62.00
37232;DHT22;23125;48.156;15.954;2024-02-23T15:01:12;13.60;62.10
37232;DHT22;23125;48.156;15.954;2024-02-23T15:03:38;13.60;62.20
37232;DHT22;23125;48.156;15.954;2024-02-23T15:06:04;13.60;61.80
37232;DHT22;23125;48.156;15.954;2024-02-23T15:08:30;13.60;61.70
37232;DHT22;23125;48.156;15.954;2024-02-23T15:10:56;13.60;61.80
37232;DHT22;23125;48.156;15.954;2024-02-23T15:13:22;13.50;61.70
37232;DHT22;23125;48.156;15.954;2024-02-23T15:15:48;13.50;61.80